Time;durP1;ratioP1;P1;durP2;ratioP2;P2;SDS_P1;SDS_P2;PMS_P1;PMS_P2;Temp;Humidity;BMP_temperature;BMP_pressure;BME280_temperature;BME280_humidity;BME280_pressure;Samples;Min_cycle;Max_cycle;Signal;HPM_P1;HPM_P2
2022/04/04 00:03:29;;;;;;;4.75;3.22;;;2.10;99.90;;;;;;12428475;28;20053;-36
2022/04/04 00:09:31;;;;;;;10.88;3.47;;;2.10;99.90;;;;;;12423116;28;20143;-36
2022/04/04 00:15:32;;;;;;;5.70;3.42;;;2.00;99.90;;;;;;12429901;28;20070;-39
2022/04/04 00:21:34;;;;;;;7.75;3.25;;;2.00;99.90;;;;;;12434523;28;20038;-40
2022/04/04 00:27:37;;;;;;;5.72;3.05;;;2.00;99.90;;;;;;12444959;28;20520;-36
2022/04/04 00:33:38;;;;;;;5.35;3.42;;;2.00;99.90;;;;;;12439825;28;20120;-39
2022/04/04 00:39:41;;;;;;;6.82;3.78;;;2.00;99.90;;;;;;12433089;28;20656;-39
2022/04/04 00:45:46;;;;;;;5.90;3.38;;;2.00;99.90;;;;;;12434903;28;20049;-39
2022/04/04 00:51:49;;;;;;;7.45;3.75;;;2.00;99.90;;;;;;12435940;28;20531;-39
2022/04/04 00:57:54;;;;;;;6.32;3.35;;;2.00;99.90;;;;;;12432323;28;20096;-36
2022/04/04 01:03:56;;;;;;;;;;;2.00;99.90;;;;;;12430513;28;20103;-39
2022/04/04 01:09:57;;;;;;;10.45;4.03;;;2.00;99.90;;;;;;12427971;28;19921;-39
2022/04/04 01:15:59;;;;;;;6.93;3.80;;;2.00;99.90;;;;;;12425624;28;20169;-39
2022/04/04 01:22:06;;;;;;;5.85;3.83;;;2.00;99.90;;;;;;12423382;28;20413;-36
2022/04/04 01:28:08;;;;;;;7.63;3.90;;;2.00;99.90;;;;;;12427645;28;20252;-37
2022/04/04 01:34:10;;;;;;;6.80;3.90;;;1.90;99.90;;;;;;12429124;28;20058;-37
2022/04/04 01:40:13;;;;;;;8.75;4.40;;;1.90;99.90;;;;;;12427951;28;20510;-39
2022/04/04 01:46:27;;;;;;;8.82;5.07;;;2.00;99.90;;;;;;12424777;28;20076;-36
2022/04/04 01:52:29;;;;;;;8.55;6.00;;;1.90;99.90;;;;;;12422017;28;20049;-39
2022/04/04 01:58:32;;;;;;;8.40;5.95;;;1.90;99.90;;;;;;12426224;28;20107;-40
2022/04/04 02:04:33;;;;;;;8.73;5.97;;;1.80;99.90;;;;;;12419591;28;20398;-39
2022/04/04 02:10:35;;;;;;;10.98;6.75;;;1.80;99.90;;;;;;12419962;28;20096;-36
2022/04/04 02:16:37;;;;;;;10.05;7.00;;;1.80;99.90;;;;;;12427955;28;20104;-36
2022/04/04 02:22:40;;;;;;;10.63;6.38;;;1.80;99.90;;;;;;12431045;28;20716;-38
2022/04/04 02:28:41;;;;;;;11.70;7.32;;;1.90;99.90;;;;;;12425588;28;20588;-36
2022/04/04 02:34:43;;;;;;;9.00;6.50;;;1.80;99.90;;;;;;12426241;28;20061;-36
2022/04/04 02:40:46;;;;;;;8.00;6.40;;;1.80;99.90;;;;;;12421692;28;20426;-39
2022/04/04 02:46:48;;;;;;;9.27;6.60;;;1.80;99.90;;;;;;12425702;28;20049;-39
2022/04/04 02:52:51;;;;;;;10.05;6.90;;;1.70;99.90;;;;;;12423475;28;20111;-35
2022/04/04 02:58:53;;;;;;;10.73;7.28;;;1.70;99.90;;;;;;12422285;28;20053;-35
2022/04/04 03:04:55;;;;;;;12.90;8.23;;;1.80;99.90;;;;;;12423611;28;20079;-40
2022/04/04 03:10:57;;;;;;;12.18;7.63;;;1.80;99.90;;;;;;12423957;28;20042;-39
2022/04/04 03:16:59;;;;;;;11.23;8.13;;;1.80;99.90;;;;;;12421616;28;20092;-39
2022/04/04 03:23:02;;;;;;;11.80;8.27;;;1.80;99.90;;;;;;12427063;28;20053;-39
2022/04/04 03:29:04;;;;;;;12.05;7.95;;;1.80;99.90;;;;;;12432983;28;20883;-36
2022/04/04 03:35:07;;;;;;;12.48;7.72;;;1.80;99.90;;;;;;12434034;28;20062;-39
2022/04/04 03:41:09;;;;;;;12.70;7.88;;;1.90;99.90;;;;;;12427807;28;20743;-39
2022/04/04 03:47:12;;;;;;;10.05;7.57;;;1.90;99.90;;;;;;12434308;28;20060;-36
2022/04/04 03:53:14;;;;;;;11.05;7.03;;;1.90;99.90;;;;;;12430564;28;20053;-36
2022/04/04 03:59:16;;;;;;;10.23;7.38;;;1.90;99.90;;;;;;12444087;28;20141;-39
2022/04/04 04:05:19;;;;;;;14.23;7.47;;;1.90;99.90;;;;;;12449595;28;20046;-36
2022/04/04 04:11:21;;;;;;;13.35;7.40;;;1.80;99.90;;;;;;12441424;28;20516;-40
2022/04/04 04:17:24;;;;;;;16.30;7.75;;;1.80;99.90;;;;;;12442876;28;20393;-39
2022/04/04 04:23:26;;;;;;;12.73;8.05;;;1.90;99.90;;;;;;12446003;28;20068;-35
2022/04/04 04:29:28;;;;;;;13.85;8.40;;;1.90;99.90;;;;;;12433945;28;20073;-39
2022/04/04 04:35:31;;;;;;;14.98;9.07;;;2.00;99.90;;;;;;12433847;28;20664;-40
2022/04/04 04:41:33;;;;;;;15.20;9.38;;;2.10;99.90;;;;;;12437465;28;20053;-41
2022/04/04 04:47:35;;;;;;;15.30;8.48;;;2.10;99.90;;;;;;12437816;28;20076;-36
2022/04/04 04:53:43;;;;;;;16.17;8.65;;;2.10;99.90;;;;;;12439127;28;20057;-40
2022/04/04 04:59:45;;;;;;;12.55;8.27;;;2.10;99.90;;;;;;12432355;28;20146;-41
2022/04/04 05:05:47;;;;;;;19.55;8.82;;;2.10;99.90;;;;;;12436725;28;20133;-36
2022/04/04 05:11:49;;;;;;;14.32;8.75;;;2.10;99.90;;;;;;12436079;28;20069;-39
2022/04/04 05:17:52;;;;;;;13.60;8.45;;;2.10;99.90;;;;;;12432280;28;20092;-40
2022/04/04 05:23:53;;;;;;;13.63;8.50;;;2.20;99.90;;;;;;12434397;28;20057;-35
2022/04/04 05:29:55;;;;;;;13.65;7.78;;;2.20;99.90;;;;;;12436744;28;20054;-39
2022/04/04 05:35:57;;;;;;;12.43;7.80;;;2.30;99.90;;;;;;12439572;28;20084;-37
2022/04/04 05:41:59;;;;;;;14.15;7.47;;;2.30;99.90;;;;;;12434275;28;20065;-36
2022/04/04 05:48:03;;;;;;;12.65;7.28;;;2.40;99.90;;;;;;12419710;28;20049;-37
2022/04/04 05:54:05;;;;;;;13.48;7.13;;;2.50;99.90;;;;;;12434244;28;20107;-36
2022/04/04 06:00:10;;;;;;;10.98;5.97;;;2.60;99.90;;;;;;12434818;28;20136;-37
2022/04/04 06:06:12;;;;;;;11.40;7.00;;;2.70;99.90;;;;;;12434523;28;20065;-39
2022/04/04 06:12:14;;;;;;;11.20;6.72;;;2.80;99.90;;;;;;12434219;28;20080;-36
2022/04/04 06:18:16;;;;;;;10.10;6.63;;;2.80;99.90;;;;;;12418056;28;20045;-36
2022/04/04 06:24:18;;;;;;;9.05;5.70;;;2.90;99.90;;;;;;12436560;28;20046;-39
2022/04/04 06:30:21;;;;;;;9.85;5.55;;;3.00;99.90;;;;;;12432724;28;20057;-39
2022/04/04 06:36:26;;;;;;;11.70;6.60;;;3.00;99.90;;;;;;12433770;28;20064;-39
2022/04/04 06:42:28;;;;;;;8.93;5.47;;;3.00;99.90;;;;;;12434093;28;20090;-37
2022/04/04 06:48:30;;;;;;;10.73;5.70;;;3.10;99.90;;;;;;12432135;28;20299;-36
2022/04/04 06:54:32;;;;;;;6.88;4.63;;;3.10;99.90;;;;;;12425079;28;20591;-40
2022/04/04 07:00:35;;;;;;;9.05;4.93;;;3.30;99.90;;;;;;12425247;28;20596;-36
2022/04/04 07:06:37;;;;;;;9.73;5.47;;;3.40;99.90;;;;;;12430814;28;20860;-36
2022/04/04 07:12:43;;;;;;;9.02;5.25;;;3.50;99.90;;;;;;12425051;28;20070;-38
2022/04/04 07:18:44;;;;;;;8.98;4.97;;;3.50;99.90;;;;;;12425574;28;20186;-37
2022/04/04 07:24:46;;;;;;;9.68;4.88;;;3.60;99.90;;;;;;12421445;28;20512;-35
2022/04/04 07:30:50;;;;;;;7.68;4.68;;;3.80;99.90;;;;;;12424777;28;20076;-39
2022/04/04 07:36:52;;;;;;;7.88;4.72;;;3.90;99.90;;;;;;12425733;28;20509;-37
2022/04/04 07:42:56;;;;;;;9.10;4.88;;;4.00;99.90;;;;;;12427112;28;20053;-39
2022/04/04 07:48:59;;;;;;;10.05;5.13;;;4.20;99.90;;;;;;12429280;28;20572;-37
2022/04/04 07:55:02;;;;;;;10.85;4.95;;;4.30;99.90;;;;;;12431452;28;20045;-39
2022/04/04 08:01:04;;;;;;;7.88;4.40;;;4.30;99.90;;;;;;12428095;28;20754;-36
2022/04/04 08:07:06;;;;;;;16.08;5.10;;;4.40;99.90;;;;;;12429737;28;20045;-37
2022/04/04 08:13:09;;;;;;;9.00;5.03;;;4.50;99.90;;;;;;12418624;28;20437;-40
2022/04/04 08:19:13;;;;;;;9.93;4.70;;;4.50;99.90;;;;;;12431884;28;20057;-36
2022/04/04 08:25:16;;;;;;;9.35;5.13;;;4.50;99.90;;;;;;12425951;28;20053;-36
2022/04/04 08:31:20;;;;;;;11.00;4.88;;;4.50;99.90;;;;;;12423267;28;20140;-36
2022/04/04 08:37:22;;;;;;;10.30;5.57;;;4.40;99.90;;;;;;12423143;28;20074;-41
2022/04/04 08:43:26;;;;;;;10.20;5.63;;;4.30;99.90;;;;;;12439856;28;20046;-36
2022/04/04 08:49:28;;;;;;;9.90;5.10;;;4.30;99.90;;;;;;12445472;28;20107;-36
2022/04/04 08:55:30;;;;;;;8.60;5.68;;;4.30;99.90;;;;;;12439718;28;20061;-39
2022/04/04 09:01:33;;;;;;;13.10;5.82;;;4.40;99.90;;;;;;12440296;28;20104;-40
2022/04/04 09:08:14;;;;;;;9.43;5.65;;;4.50;99.90;;;;;;12445854;28;20099;-36
2022/04/04 09:14:21;;;;;;;9.82;5.60;;;4.50;99.90;;;;;;12443342;28;20057;-36
2022/04/04 09:20:24;;;;;;;15.75;6.43;;;4.70;99.90;;;;;;12437996;28;20052;-36
2022/04/04 09:26:41;;;;;;;7.78;6.20;;;4.90;99.90;;;;;;12444869;28;20054;-36
2022/04/04 09:32:45;;;;;;;10.70;5.82;;;5.00;99.90;;;;;;12441517;28;20549;-39
2022/04/04 09:38:59;;;;;;;14.00;6.93;;;5.30;99.90;;;;;;12438199;28;20095;-40
2022/04/04 09:45:12;;;;;;;11.47;7.33;;;5.10;99.90;;;;;;12436279;28;20160;-36
2022/04/04 09:51:53;;;;;;;9.20;6.97;;;5.10;99.90;;;;;;12440792;28;20053;-36
2022/04/04 09:57:59;;;;;;;12.23;7.78;;;4.90;99.90;;;;;;12440659;28;20124;-35
2022/04/04 10:04:02;;;;;;;12.05;7.68;;;4.70;99.90;;;;;;12437674;28;20053;-40
2022/04/04 10:10:05;;;;;;;13.80;9.05;;;4.60;99.90;;;;;;12432272;28;20585;-36
2022/04/04 10:16:08;;;;;;;15.38;9.52;;;4.50;99.90;;;;;;12441675;28;20138;-36
2022/04/04 10:22:10;;;;;;;17.15;12.80;;;4.50;99.90;;;;;;12439810;28;20054;-36
2022/04/04 10:28:29;;;;;;;16.92;12.65;;;4.50;99.90;;;;;;12440487;28;20100;-39
2022/04/04 10:34:40;;;;;;;16.77;12.95;;;4.40;99.90;;;;;;12438466;28;20145;-39
2022/04/04 10:40:43;;;;;;;16.80;13.18;;;4.40;99.90;;;;;;12438292;28;20144;-36
2022/04/04 10:46:50;;;;;;;18.88;13.98;;;4.40;99.90;;;;;;12441482;28;20137;-37
2022/04/04 10:53:03;;;;;;;19.50;14.65;;;4.30;99.90;;;;;;12452366;28;20170;-40
2022/04/04 10:59:15;;;;;;;19.33;12.63;;;4.20;99.90;;;;;;12444881;28;20053;-36
2022/04/04 11:11:43;;;;;;;17.35;12.40;;;4.00;99.90;;;;;;12426058;28;20053;-39
2022/04/04 11:17:57;;;;;;;15.73;12.57;;;3.90;99.90;;;;;;12432650;28;20057;-36
2022/04/04 11:24:07;;;;;;;16.37;10.77;;;4.00;99.90;;;;;;12431766;28;20061;-40
2022/04/04 11:30:15;;;;;;;15.93;10.25;;;4.00;99.90;;;;;;12437395;28;20049;-40
2022/04/04 11:36:30;;;;;;;13.65;10.20;;;3.90;99.90;;;;;;12438438;28;20216;-39
2022/04/04 11:42:40;;;;;;;13.93;10.48;;;3.90;99.90;;;;;;12442112;28;20053;-39
2022/04/04 11:48:54;;;;;;;14.32;10.27;;;4.00;99.90;;;;;;12441013;28;20053;-36
2022/04/04 11:54:57;;;;;;;14.35;10.00;;;4.00;99.90;;;;;;12439174;28;20463;-39
2022/04/04 12:01:06;;;;;;;12.95;9.80;;;4.00;99.90;;;;;;12423494;28;20056;-39
2022/04/04 12:07:11;;;;;;;13.80;8.88;;;4.00;99.90;;;;;;12439999;28;20057;-40
2022/04/04 12:13:19;;;;;;;13.95;9.23;;;4.00;99.90;;;;;;12422264;28;20104;-36
2022/04/04 12:19:22;;;;;;;12.05;8.90;;;4.10;99.90;;;;;;12446648;28;20049;-39
2022/04/04 12:25:25;;;;;;;10.40;7.45;;;4.10;99.90;;;;;;12447244;28;20045;-39
2022/04/04 12:31:28;;;;;;;13.70;9.80;;;4.00;99.90;;;;;;12445334;28;20046;-39
2022/04/04 12:37:35;;;;;;;12.68;9.18;;;4.10;99.90;;;;;;12444769;28;20065;-39
2022/04/04 12:43:44;;;;;;;18.00;9.85;;;4.10;99.90;;;;;;12448708;28;20513;-39
2022/04/04 12:49:47;;;;;;;13.35;10.43;;;4.00;99.90;;;;;;12445535;28;20065;-39
2022/04/04 12:56:07;;;;;;;12.38;9.20;;;4.00;99.90;;;;;;12450039;28;20518;-36
2022/04/04 13:02:10;;;;;;;15.63;10.48;;;4.20;99.90;;;;;;12446531;28;20050;-40
2022/04/04 13:08:18;;;;;;;13.70;9.45;;;4.20;99.90;;;;;;12456242;28;20590;-36
2022/04/04 13:14:22;;;;;;;13.75;8.82;;;4.20;99.90;;;;;;12446074;28;20053;-39
2022/04/04 13:20:25;;;;;;;12.70;9.70;;;4.30;99.90;;;;;;12411814;28;1161442;-39
2022/04/04 13:26:29;;;;;;;12.02;9.00;;;4.30;99.90;;;;;;12454775;28;20049;-36
2022/04/04 13:32:31;;;;;;;10.77;8.07;;;4.30;99.90;;;;;;12448559;28;20042;-37
2022/04/04 13:38:37;;;;;;;9.80;7.25;;;4.20;99.90;;;;;;12451725;28;20115;-36
2022/04/04 13:44:41;;;;;;;9.27;7.13;;;4.20;99.90;;;;;;12444741;28;20144;-36
2022/04/04 13:50:44;;;;;;;10.10;7.85;;;4.30;99.90;;;;;;12453501;28;20053;-40
2022/04/04 13:56:47;;;;;;;10.63;8.43;;;4.30;99.90;;;;;;12455561;28;20053;-39
2022/04/04 14:02:53;;;;;;;12.60;8.20;;;4.30;99.90;;;;;;12450704;28;20053;-37
2022/04/04 14:08:57;;;;;;;10.53;7.63;;;4.30;99.90;;;;;;12455453;28;20424;-36
2022/04/04 14:14:59;;;;;;;12.43;8.23;;;4.20;99.90;;;;;;12454098;28;20494;-36
2022/04/04 14:21:05;;;;;;;10.57;8.60;;;4.30;99.90;;;;;;12451166;28;20136;-36
2022/04/04 14:27:08;;;;;;;11.27;8.35;;;4.30;99.90;;;;;;12449254;28;20414;-39
2022/04/04 14:33:11;;;;;;;9.73;7.60;;;4.30;99.90;;;;;;12443957;28;20045;-36
2022/04/04 14:39:14;;;;;;;9.45;6.47;;;4.30;99.90;;;;;;12444848;28;20045;-36
2022/04/04 14:45:16;;;;;;;7.68;6.22;;;4.20;99.90;;;;;;12446560;28;20049;-36
2022/04/04 14:51:22;;;;;;;6.97;5.72;;;4.20;99.90;;;;;;12447562;28;20057;-40
2022/04/04 14:57:30;;;;;;;7.40;5.80;;;4.20;99.90;;;;;;12454730;28;20050;-36
2022/04/04 15:03:35;;;;;;;8.15;6.45;;;4.20;99.90;;;;;;12444519;28;20486;-37
2022/04/04 15:09:39;;;;;;;8.57;6.57;;;4.30;99.90;;;;;;12450220;28;20433;-36
2022/04/04 15:15:42;;;;;;;9.88;7.40;;;4.30;99.90;;;;;;12448040;28;20059;-39
2022/04/04 15:21:47;;;;;;;7.60;6.15;;;4.30;99.90;;;;;;12445315;28;20049;-40
2022/04/04 15:27:54;;;;;;;8.25;6.50;;;4.30;99.90;;;;;;12456830;28;20128;-40
2022/04/04 15:34:03;;;;;;;8.55;6.95;;;4.30;99.90;;;;;;12445845;28;20041;-37
2022/04/04 15:40:13;;;;;;;6.65;4.97;;;4.30;99.90;;;;;;12463292;28;20088;-37
2022/04/04 15:46:26;;;;;;;7.35;5.85;;;4.20;99.90;;;;;;12461146;28;20089;-37
2022/04/04 15:52:45;;;;;;;8.02;5.90;;;4.30;99.90;;;;;;12444142;28;20046;-39
2022/04/04 15:59:03;;;;;;;9.55;7.45;;;4.30;99.90;;;;;;12463178;28;20061;-37
2022/04/04 16:05:12;;;;;;;10.23;7.82;;;4.30;99.90;;;;;;12455652;28;20587;-40
2022/04/04 16:11:24;;;;;;;9.48;7.68;;;4.40;99.90;;;;;;12463224;28;20488;-36
2022/04/04 16:17:31;;;;;;;10.00;8.10;;;4.40;99.90;;;;;;12456921;28;20061;-39
2022/04/04 16:23:48;;;;;;;10.05;8.00;;;4.50;99.90;;;;;;12449507;28;20056;-36
2022/04/04 16:29:57;;;;;;;11.13;8.45;;;4.50;99.90;;;;;;12456236;28;20057;-40
2022/04/04 16:36:04;;;;;;;13.45;10.27;;;4.50;99.90;;;;;;12453615;28;20103;-39
2022/04/04 16:42:13;;;;;;;11.38;9.30;;;4.40;99.90;;;;;;12440743;28;20053;-40
2022/04/04 16:48:23;;;;;;;11.93;9.50;;;4.50;99.90;;;;;;12454163;28;20060;-40
2022/04/04 16:54:40;;;;;;;11.85;9.32;;;4.50;99.90;;;;;;12420437;28;20065;-40
2022/04/04 17:00:55;;;;;;;11.55;8.52;;;4.50;99.90;;;;;;12461400;28;20054;-39
2022/04/04 17:07:01;;;;;;;14.05;9.43;;;4.60;99.90;;;;;;12467781;28;20057;-35
2022/04/04 17:13:13;;;;;;;12.63;9.88;;;4.60;99.90;;;;;;12453576;28;20084;-39
2022/04/04 17:19:29;;;;;;;11.93;9.30;;;4.60;99.90;;;;;;12467147;28;20057;-39
2022/04/04 17:25:46;;;;;;;12.73;9.90;;;4.60;99.90;;;;;;12463811;28;20702;-41
2022/04/04 17:31:57;;;;;;;11.65;9.02;;;4.60;99.90;;;;;;12466181;28;20046;-39
2022/04/04 17:38:19;;;;;;;12.52;10.02;;;4.70;99.90;;;;;;12453610;28;20113;-36
2022/04/04 17:44:34;;;;;;;13.15;10.50;;;4.80;99.90;;;;;;12459474;28;20049;-38
2022/04/04 17:50:40;;;;;;;14.40;11.00;;;4.80;99.90;;;;;;12463528;28;20691;-35
2022/04/04 17:57:02;;;;;;;13.25;10.48;;;4.90;99.90;;;;;;12462845;28;20065;-35
2022/04/04 18:03:15;;;;;;;14.27;11.43;;;4.90;99.90;;;;;;12454420;28;20057;-35
2022/04/04 18:09:24;;;;;;;14.85;11.88;;;5.00;99.90;;;;;;12446900;28;20176;-35
2022/04/04 18:15:35;;;;;;;16.85;12.95;;;5.00;99.90;;;;;;12445054;28;20187;-36
2022/04/04 18:21:45;;;;;;;15.68;12.68;;;5.00;99.90;;;;;;12453510;28;20064;-38
2022/04/04 18:27:52;;;;;;;18.42;13.63;;;5.00;99.90;;;;;;12465752;28;20092;-35
2022/04/04 18:34:03;;;;;;;14.93;12.32;;;5.10;99.90;;;;;;12465641;28;20187;-35
2022/04/04 18:40:21;;;;;;;16.20;12.45;;;5.20;99.90;;;;;;12460733;28;20054;-35
2022/04/04 18:46:40;;;;;;;14.73;11.77;;;5.20;99.90;;;;;;12463365;28;20049;-38
2022/04/04 18:52:52;;;;;;;15.85;12.38;;;5.30;99.90;;;;;;12463085;28;20143;-35
2022/04/04 18:59:01;;;;;;;14.25;11.43;;;5.20;99.90;;;;;;12464116;28;20050;-36
2022/04/04 19:05:11;;;;;;;13.40;10.75;;;5.30;99.90;;;;;;12431787;28;20054;-35
2022/04/04 19:11:27;;;;;;;14.82;11.10;;;5.30;99.90;;;;;;12461835;28;20057;-39
2022/04/04 19:17:49;;;;;;;14.35;11.82;;;5.40;99.90;;;;;;12464439;28;20061;-36
2022/04/04 19:24:11;;;;;;;16.00;11.98;;;5.50;99.90;;;;;;12428211;28;20096;-39
2022/04/04 19:30:28;;;;;;;14.80;12.43;;;5.50;99.90;;;;;;12463231;28;20065;-35
2022/04/04 19:36:36;;;;;;;14.25;11.90;;;5.60;99.90;;;;;;12441679;28;20045;-35
2022/04/04 19:42:45;;;;;;;15.18;11.77;;;5.60;99.90;;;;;;12458988;28;20054;-36
2022/04/04 19:49:03;;;;;;;14.60;11.23;;;5.60;99.90;;;;;;12461229;28;20217;-38
2022/04/04 19:55:22;;;;;;;13.77;11.00;;;5.70;99.90;;;;;;12449999;28;20057;-35
2022/04/04 20:01:40;;;;;;;14.32;11.52;;;5.70;99.90;;;;;;12444145;28;20111;-38
2022/04/04 20:08:00;;;;;;;14.65;10.60;;;5.70;99.90;;;;;;12462907;28;20045;-36
2022/04/04 20:14:18;;;;;;;12.85;10.23;;;5.80;99.90;;;;;;12449547;28;20064;-35
2022/04/04 20:20:40;;;;;;;11.40;8.85;;;5.80;99.90;;;;;;12406821;28;20057;-38
2022/04/04 20:27:01;;;;;;;11.10;9.10;;;5.80;99.90;;;;;;12411515;28;20050;-38
2022/04/04 20:33:16;;;;;;;12.52;8.77;;;5.80;99.90;;;;;;12397656;28;20413;-39
2022/04/04 20:39:30;;;;;;;8.75;6.95;;;5.80;99.90;;;;;;12414923;28;20908;-38
2022/04/04 20:45:44;;;;;;;10.43;8.20;;;5.80;99.90;;;;;;12419141;28;20181;-35
2022/04/04 20:52:04;;;;;;;9.50;7.43;;;5.80;99.90;;;;;;12417775;28;20292;-37
2022/04/04 20:58:20;;;;;;;9.07;7.22;;;5.80;99.90;;;;;;12420509;28;20093;-38
2022/04/04 21:04:40;;;;;;;11.10;8.80;;;5.80;99.90;;;;;;12403381;28;20390;-38
2022/04/04 21:10:58;;;;;;;11.65;8.98;;;5.80;99.90;;;;;;12417694;28;20085;-38
2022/04/04 21:17:21;;;;;;;10.90;8.70;;;5.80;99.90;;;;;;12428905;28;20123;-39
2022/04/04 21:23:32;;;;;;;10.68;8.57;;;5.80;99.90;;;;;;12461358;28;20343;-38
2022/04/04 21:29:45;;;;;;;10.30;7.80;;;5.80;99.90;;;;;;12459183;28;20049;-39
2022/04/04 21:36:04;;;;;;;9.88;7.70;;;5.80;99.90;;;;;;12455659;28;20068;-38
2022/04/04 21:42:20;;;;;;;11.38;7.18;;;5.90;99.90;;;;;;12451365;28;20194;-35
2022/04/04 21:48:39;;;;;;;9.90;8.05;;;5.90;99.90;;;;;;12463565;28;20053;-39
2022/04/04 21:54:57;;;;;;;12.93;8.75;;;5.90;99.90;;;;;;12434129;28;20141;-35
2022/04/04 22:01:10;;;;;;;12.13;8.95;;;5.90;99.90;;;;;;12452638;28;20457;-39
2022/04/04 22:07:33;;;;;;;12.35;9.32;;;6.00;99.90;;;;;;12463650;28;20490;-36
2022/04/04 22:13:53;;;;;;;10.77;8.68;;;6.00;99.90;;;;;;12450378;28;20058;-35
2022/04/04 22:20:17;;;;;;;11.80;8.88;;;6.00;99.90;;;;;;12447122;28;20148;-36
2022/04/04 22:26:38;;;;;;;11.25;8.25;;;6.00;99.90;;;;;;12432684;28;20722;-39
2022/04/04 22:32:54;;;;;;;14.18;8.13;;;6.10;99.90;;;;;;12429636;28;20165;-35
2022/04/04 22:39:21;;;;;;;10.93;8.18;;;6.10;99.90;;;;;;12466735;28;20060;-35
2022/04/04 22:45:44;;;;;;;10.85;7.47;;;6.00;99.90;;;;;;12429412;28;20402;-35
2022/04/04 22:51:58;;;;;;;9.35;7.20;;;6.10;99.90;;;;;;12461873;28;20061;-35
2022/04/04 22:58:07;;;;;;;8.95;6.47;;;6.10;99.90;;;;;;12455332;28;20092;-39
2022/04/04 23:04:31;;;;;;;10.18;7.32;;;6.10;99.90;;;;;;12447474;28;20060;-39
2022/04/04 23:10:48;;;;;;;9.75;6.40;;;6.10;99.90;;;;;;12462108;28;20085;-36
2022/04/04 23:17:01;;;;;;;9.50;6.63;;;6.10;99.90;;;;;;12457505;28;20114;-40
2022/04/04 23:23:18;;;;;;;8.55;5.80;;;6.10;99.90;;;;;;12447943;28;20060;-35
2022/04/04 23:29:32;;;;;;;9.30;6.23;;;6.20;99.90;;;;;;12459178;28;20050;-35
2022/04/04 23:35:51;;;;;;;8.23;6.03;;;6.20;99.90;;;;;;12447290;28;20509;-39
2022/04/04 23:42:27;;;;;;;8.00;5.45;;;6.20;99.90;;;;;;12442544;28;20053;-39
2022/04/04 23:48:53;;;;;;;7.80;5.60;;;6.30;99.90;;;;;;12460323;28;20133;-36
2022/04/04 23:55:09;;;;;;;8.50;4.93;;;6.20;99.90;;;;;;12452419;28;20045;-39
